Terminal Aerodrome Forecast
Issued by NWS

Home | Current Version | Previous Version | Text Only | Print | Product List | Glossary Off
Versions: 1 2 3 4 5 6 7 8 9 10 11 12 13 14 15 16 17

000
FTUS43 KGRB 272327
TAFCWA
TAF
KCWA 272327Z 2800/2824 35003KT P6SM SCT015 OVC060
      TEMPO 2800/2802 BKN015
     FM280500 03004KT P6SM SCT060
     FM280800 02004KT 3SM BR BKN008
     FM281400 05006KT P6SM SCT250=

USA.gov is the U.S. government's official web portal to all federal, state and local government web resources and services.